OEFTW RPVB-RPVB
Flight info
| Callsign | OEFTW |
|---|---|
| Flight time | 0h 48m |
| Altitude | 4500 |
| Route | LOCAL FLIGHT |
| Aircraft | DA42/L-SDFGRY/LB2 |
Departure
| Time | 2026-05-07 10:14 |
|---|---|
| Airport | Bacolod-Silay International Airport (RPVB) |
Arrival
| Time | 2026-05-07 11:03 |
|---|---|
| Airport | Bacolod-Silay International Airport (RPVB) |
| Time | Latitude | Longitude | Altitude | Speed | Heading |
|---|---|---|---|---|---|
| 2026-05-07 10:01 | 10.77276 | 123.01375 | 78 ft | 0 kts | 30° |
| 2026-05-07 10:06 | 10.77276 | 123.01387 | 83 ft | 5 kts | 108° |
| 2026-05-07 10:06 | 10.77283 | 123.01406 | 81 ft | 0 kts | 27° |
| 2026-05-07 10:10 | 10.77292 | 123.01411 | 83 ft | 5 kts | 29° |
| 2026-05-07 10:11 | 10.77316 | 123.01437 | 84 ft | 10 kts | 88° |
| 2026-05-07 10:11 | 10.77376 | 123.01505 | 88 ft | 11 kts | 98° |
| 2026-05-07 10:11 | 10.77344 | 123.01555 | 88 ft | 14 kts | 124° |
| 2026-05-07 10:11 | 10.77304 | 123.01622 | 88 ft | 11 kts | 119° |
| 2026-05-07 10:12 | 10.77229 | 123.01653 | 89 ft | 15 kts | 202° |
| 2026-05-07 10:12 | 10.77127 | 123.01594 | 93 ft | 19 kts | 209° |
| 2026-05-07 10:12 | 10.76964 | 123.01497 | 92 ft | 20 kts | 220° |
| 2026-05-07 10:12 | 10.76916 | 123.01438 | 90 ft | 10 kts | 193° |
| 2026-05-07 10:13 | 10.76915 | 123.01469 | 90 ft | 0 kts | 30° |
| 2026-05-07 10:13 | 10.76921 | 123.01472 | 90 ft | 11 kts | 30° |
| 2026-05-07 10:13 | 10.77156 | 123.01610 | 89 ft | 63 kts | 30° |
| 2026-05-07 10:13 | 10.77637 | 123.01874 | 151 ft | 89 kts | 28° |
| 2026-05-07 10:14 | 10.78229 | 123.02205 | 275 ft | 105 kts | 28° |
| 2026-05-07 10:14 | 10.78880 | 123.02552 | 497 ft | 104 kts | 29° |
| 2026-05-07 10:14 | 10.79582 | 123.02788 | 583 ft | 113 kts | 9° |
| 2026-05-07 10:14 | 10.80351 | 123.02670 | 755 ft | 114 kts | 335° |
| 2026-05-07 10:15 | 10.80844 | 123.01981 | 846 ft | 135 kts | 291° |
| 2026-05-07 10:15 | 10.81025 | 123.01023 | 978 ft | 139 kts | 284° |
| 2026-05-07 10:15 | 10.80993 | 123.00025 | 1118 ft | 148 kts | 251° |
| 2026-05-07 10:15 | 10.80386 | 122.99212 | 1252 ft | 143 kts | 213° |
| 2026-05-07 10:16 | 10.79529 | 122.98669 | 1341 ft | 148 kts | 205° |
| 2026-05-07 10:16 | 10.78615 | 122.98181 | 1440 ft | 149 kts | 202° |
| 2026-05-07 10:16 | 10.77668 | 122.97714 | 1548 ft | 151 kts | 199° |
| 2026-05-07 10:16 | 10.76713 | 122.97267 | 1595 ft | 152 kts | 198° |
| 2026-05-07 10:17 | 10.75734 | 122.96807 | 1709 ft | 163 kts | 205° |
| 2026-05-07 10:17 | 10.74691 | 122.96341 | 1748 ft | 164 kts | 204° |
| 2026-05-07 10:17 | 10.73643 | 122.95860 | 1759 ft | 167 kts | 204° |
| 2026-05-07 10:17 | 10.72565 | 122.95388 | 1770 ft | 169 kts | 204° |
| 2026-05-07 10:18 | 10.71484 | 122.94893 | 1776 ft | 171 kts | 205° |
| 2026-05-07 10:18 | 10.70404 | 122.94385 | 1808 ft | 170 kts | 206° |
| 2026-05-07 10:18 | 10.69323 | 122.93875 | 1753 ft | 174 kts | 207° |
| 2026-05-07 10:18 | 10.68232 | 122.93350 | 1719 ft | 174 kts | 206° |
| 2026-05-07 10:19 | 10.67159 | 122.92798 | 1863 ft | 171 kts | 206° |
| 2026-05-07 10:19 | 10.66102 | 122.92255 | 1998 ft | 168 kts | 205° |
| 2026-05-07 10:19 | 10.65080 | 122.91709 | 2194 ft | 164 kts | 206° |
| 2026-05-07 10:19 | 10.64135 | 122.91097 | 2336 ft | 158 kts | 215° |
| 2026-05-07 10:20 | 10.63243 | 122.90430 | 2385 ft | 160 kts | 215° |
| 2026-05-07 10:20 | 10.62358 | 122.89752 | 2440 ft | 161 kts | 214° |
| 2026-05-07 10:20 | 10.61449 | 122.89076 | 2510 ft | 162 kts | 213° |
| 2026-05-07 10:20 | 10.60526 | 122.88389 | 2516 ft | 168 kts | 212° |
| 2026-05-07 10:21 | 10.59587 | 122.87684 | 2623 ft | 166 kts | 216° |
| 2026-05-07 10:21 | 10.58703 | 122.86915 | 2645 ft | 170 kts | 221° |
| 2026-05-07 10:21 | 10.57833 | 122.86072 | 2643 ft | 173 kts | 220° |
| 2026-05-07 10:21 | 10.56968 | 122.85225 | 2693 ft | 173 kts | 221° |
| 2026-05-07 10:22 | 10.56098 | 122.84376 | 2726 ft | 172 kts | 218° |
| 2026-05-07 10:22 | 10.55104 | 122.83701 | 2691 ft | 173 kts | 202° |
| 2026-05-07 10:22 | 10.53988 | 122.83313 | 2736 ft | 165 kts | 186° |
| 2026-05-07 10:22 | 10.52872 | 122.83169 | 2776 ft | 160 kts | 178° |
| 2026-05-07 10:23 | 10.51764 | 122.83127 | 2787 ft | 159 kts | 175° |
| 2026-05-07 10:23 | 10.50647 | 122.83113 | 2742 ft | 163 kts | 175° |
| 2026-05-07 10:23 | 10.49510 | 122.83137 | 2759 ft | 163 kts | 172° |
| 2026-05-07 10:23 | 10.48368 | 122.83186 | 2753 ft | 164 kts | 171° |
| 2026-05-07 10:24 | 10.47256 | 122.83361 | 2763 ft | 161 kts | 163° |
| 2026-05-07 10:24 | 10.46201 | 122.83596 | 2812 ft | 144 kts | 162° |
| 2026-05-07 10:24 | 10.45210 | 122.83826 | 2804 ft | 149 kts | 161° |
| 2026-05-07 10:24 | 10.44177 | 122.84070 | 2750 ft | 156 kts | 162° |
| 2026-05-07 10:25 | 10.43116 | 122.84331 | 2670 ft | 160 kts | 163° |
| 2026-05-07 10:25 | 10.42036 | 122.84560 | 2678 ft | 157 kts | 168° |
| 2026-05-07 10:25 | 10.40953 | 122.84658 | 2691 ft | 156 kts | 170° |
| 2026-05-07 10:25 | 10.39876 | 122.84761 | 2757 ft | 154 kts | 170° |
| 2026-05-07 10:26 | 10.38817 | 122.84864 | 2833 ft | 151 kts | 170° |
| 2026-05-07 10:26 | 10.37777 | 122.84968 | 2903 ft | 149 kts | 170° |
| 2026-05-07 10:26 | 10.36749 | 122.85067 | 2979 ft | 148 kts | 170° |
| 2026-05-07 10:26 | 10.35734 | 122.85159 | 3044 ft | 145 kts | 169° |
| 2026-05-07 10:27 | 10.34734 | 122.85240 | 3110 ft | 144 kts | 170° |
| 2026-05-07 10:27 | 10.33741 | 122.85311 | 3177 ft | 144 kts | 173° |
| 2026-05-07 10:27 | 10.32729 | 122.85105 | 3176 ft | 154 kts | 197° |
| 2026-05-07 10:27 | 10.31759 | 122.84654 | 3281 ft | 151 kts | 198° |
| 2026-05-07 10:28 | 10.30780 | 122.84268 | 3359 ft | 151 kts | 194° |
| 2026-05-07 10:28 | 10.29764 | 122.84028 | 3431 ft | 149 kts | 182° |
| 2026-05-07 10:28 | 10.28719 | 122.83932 | 3442 ft | 153 kts | 178° |
| 2026-05-07 10:28 | 10.27652 | 122.83865 | 3500 ft | 153 kts | 177° |
| 2026-05-07 10:29 | 10.26588 | 122.83815 | 3554 ft | 154 kts | 176° |
| 2026-05-07 10:29 | 10.25514 | 122.83827 | 3578 ft | 155 kts | 173° |
| 2026-05-07 10:29 | 10.24410 | 122.83869 | 3491 ft | 162 kts | 172° |
| 2026-05-07 10:30 | 10.22165 | 122.83995 | 3501 ft | 161 kts | 172° |
| 2026-05-07 10:30 | 10.21039 | 122.83988 | 3483 ft | 163 kts | 179° |
| 2026-05-07 10:30 | 10.19907 | 122.83852 | 3484 ft | 164 kts | 183° |
| 2026-05-07 10:30 | 10.18778 | 122.83633 | 3439 ft | 168 kts | 192° |
| 2026-05-07 10:31 | 10.17698 | 122.83201 | 3411 ft | 169 kts | 199° |
| 2026-05-07 10:31 | 10.16619 | 122.82727 | 3269 ft | 170 kts | 199° |
| 2026-05-07 10:31 | 10.15533 | 122.82246 | 3150 ft | 169 kts | 200° |
| 2026-05-07 10:31 | 10.14442 | 122.81761 | 3005 ft | 170 kts | 200° |
| 2026-05-07 10:32 | 10.13353 | 122.81309 | 2880 ft | 169 kts | 199° |
| 2026-05-07 10:32 | 10.12252 | 122.80905 | 2757 ft | 168 kts | 197° |
| 2026-05-07 10:32 | 10.11150 | 122.80526 | 2654 ft | 167 kts | 195° |
| 2026-05-07 10:32 | 10.10044 | 122.80188 | 2494 ft | 170 kts | 192° |
| 2026-05-07 10:33 | 10.08893 | 122.79924 | 2467 ft | 164 kts | 189° |
| 2026-05-07 10:33 | 10.07799 | 122.79666 | 2412 ft | 160 kts | 191° |
| 2026-05-07 10:33 | 10.06722 | 122.79394 | 2243 ft | 162 kts | 191° |
| 2026-05-07 10:33 | 10.05644 | 122.79100 | 2141 ft | 159 kts | 194° |
| 2026-05-07 10:34 | 10.04603 | 122.78766 | 2074 ft | 155 kts | 197° |
| 2026-05-07 10:34 | 10.03588 | 122.78506 | 2020 ft | 148 kts | 186° |
| 2026-05-07 10:34 | 10.02567 | 122.78406 | 1928 ft | 147 kts | 177° |
| 2026-05-07 10:34 | 10.01539 | 122.78492 | 1793 ft | 150 kts | 169° |
| 2026-05-07 10:35 | 10.00526 | 122.78658 | 1797 ft | 144 kts | 161° |
| 2026-05-07 10:35 | 9.99739 | 122.79207 | 1802 ft | 138 kts | 117° |
| 2026-05-07 10:35 | 9.99745 | 122.80061 | 1995 ft | 118 kts | 57° |
| 2026-05-07 10:35 | 10.00456 | 122.80458 | 1946 ft | 129 kts | 5° |
| 2026-05-07 10:36 | 10.01291 | 122.80145 | 2020 ft | 127 kts | 333° |
| 2026-05-07 10:36 | 10.02053 | 122.79637 | 1912 ft | 138 kts | 327° |
| 2026-05-07 10:36 | 10.02422 | 122.78747 | 1785 ft | 155 kts | 261° |
| 2026-05-07 10:36 | 10.01741 | 122.77980 | 1847 ft | 146 kts | 195° |
| 2026-05-07 10:37 | 10.00782 | 122.78105 | 1851 ft | 141 kts | 150° |
| 2026-05-07 10:37 | 10.00022 | 122.78686 | 1876 ft | 134 kts | 124° |
| 2026-05-07 10:37 | 9.99657 | 122.79543 | 1805 ft | 137 kts | 93° |
| 2026-05-07 10:37 | 9.99733 | 122.80445 | 1979 ft | 119 kts | 75° |
| 2026-05-07 10:38 | 9.99952 | 122.81279 | 1899 ft | 128 kts | 72° |
| 2026-05-07 10:38 | 10.00245 | 122.82121 | 1951 ft | 122 kts | 64° |
| 2026-05-07 10:38 | 10.00700 | 122.82846 | 1951 ft | 125 kts | 51° |
| 2026-05-07 10:38 | 10.01270 | 122.83526 | 1896 ft | 130 kts | 49° |
| 2026-05-07 10:39 | 10.01718 | 122.84330 | 1879 ft | 134 kts | 75° |
| 2026-05-07 10:39 | 10.01620 | 122.85247 | 1906 ft | 134 kts | 113° |
| 2026-05-07 10:39 | 10.00948 | 122.85907 | 1936 ft | 139 kts | 150° |
| 2026-05-07 10:39 | 9.99989 | 122.86035 | 1982 ft | 142 kts | 187° |
| 2026-05-07 10:40 | 9.99119 | 122.85614 | 1984 ft | 143 kts | 220° |
| 2026-05-07 10:40 | 9.98594 | 122.84780 | 2074 ft | 139 kts | 253° |
| 2026-05-07 10:40 | 9.98494 | 122.83789 | 2014 ft | 144 kts | 272° |
| 2026-05-07 10:40 | 9.98582 | 122.82803 | 2058 ft | 140 kts | 281° |
| 2026-05-07 10:41 | 9.98804 | 122.81841 | 2067 ft | 138 kts | 289° |
| 2026-05-07 10:41 | 9.99131 | 122.80928 | 2050 ft | 139 kts | 297° |
| 2026-05-07 10:41 | 9.99593 | 122.80052 | 2015 ft | 141 kts | 302° |
| 2026-05-07 10:41 | 10.00104 | 122.79220 | 2009 ft | 140 kts | 309° |
| 2026-05-07 10:42 | 10.00906 | 122.78687 | 1958 ft | 137 kts | 350° |
| 2026-05-07 10:42 | 10.01806 | 122.78745 | 2065 ft | 129 kts | 18° |
| 2026-05-07 10:42 | 10.02680 | 122.79011 | 2131 ft | 132 kts | 20° |
| 2026-05-07 10:42 | 10.03565 | 122.79279 | 2204 ft | 134 kts | 20° |
| 2026-05-07 10:43 | 10.04453 | 122.79566 | 2276 ft | 135 kts | 20° |
| 2026-05-07 10:43 | 10.05354 | 122.79855 | 2350 ft | 137 kts | 20° |
| 2026-05-07 10:43 | 10.06264 | 122.80150 | 2420 ft | 138 kts | 20° |
| 2026-05-07 10:43 | 10.07180 | 122.80438 | 2494 ft | 138 kts | 20° |
| 2026-05-07 10:44 | 10.08109 | 122.80717 | 2566 ft | 140 kts | 19° |
| 2026-05-07 10:44 | 10.09038 | 122.81004 | 2643 ft | 140 kts | 19° |
| 2026-05-07 10:44 | 10.09984 | 122.81261 | 2715 ft | 141 kts | 17° |
| 2026-05-07 10:44 | 10.10935 | 122.81514 | 2786 ft | 142 kts | 17° |
| 2026-05-07 10:45 | 10.11886 | 122.81769 | 2855 ft | 141 kts | 17° |
| 2026-05-07 10:45 | 10.12838 | 122.82016 | 2932 ft | 141 kts | 17° |
| 2026-05-07 10:45 | 10.13828 | 122.82098 | 3003 ft | 144 kts | 3° |
| 2026-05-07 10:45 | 10.14816 | 122.82090 | 3075 ft | 144 kts | 4° |
| 2026-05-07 10:46 | 10.15816 | 122.82106 | 3147 ft | 144 kts | 6° |
| 2026-05-07 10:46 | 10.16815 | 122.82138 | 3211 ft | 144 kts | 7° |
| 2026-05-07 10:46 | 10.17818 | 122.82174 | 3280 ft | 144 kts | 7° |
| 2026-05-07 10:46 | 10.18819 | 122.82212 | 3351 ft | 144 kts | 7° |
| 2026-05-07 10:47 | 10.19819 | 122.82251 | 3424 ft | 144 kts | 7° |
| 2026-05-07 10:47 | 10.20813 | 122.82290 | 3493 ft | 143 kts | 7° |
| 2026-05-07 10:47 | 10.21825 | 122.82329 | 3493 ft | 147 kts | 7° |
| 2026-05-07 10:47 | 10.22860 | 122.82369 | 3492 ft | 150 kts | 7° |
| 2026-05-07 10:48 | 10.23914 | 122.82410 | 3491 ft | 153 kts | 7° |
| 2026-05-07 10:48 | 10.24982 | 122.82451 | 3501 ft | 154 kts | 7° |
| 2026-05-07 10:48 | 10.26059 | 122.82493 | 3500 ft | 156 kts | 7° |
| 2026-05-07 10:48 | 10.27147 | 122.82535 | 3498 ft | 156 kts | 7° |
| 2026-05-07 10:49 | 10.28225 | 122.82574 | 3498 ft | 155 kts | 7° |
| 2026-05-07 10:49 | 10.29304 | 122.82615 | 3495 ft | 154 kts | 7° |
| 2026-05-07 10:49 | 10.30372 | 122.82656 | 3494 ft | 153 kts | 7° |
| 2026-05-07 10:49 | 10.31433 | 122.82697 | 3498 ft | 153 kts | 7° |
| 2026-05-07 10:50 | 10.32496 | 122.82738 | 3493 ft | 153 kts | 7° |
| 2026-05-07 10:50 | 10.33557 | 122.82779 | 3498 ft | 152 kts | 7° |
| 2026-05-07 10:50 | 10.34615 | 122.82820 | 3494 ft | 152 kts | 7° |
| 2026-05-07 10:50 | 10.35671 | 122.82861 | 3498 ft | 152 kts | 7° |
| 2026-05-07 10:51 | 10.36727 | 122.82901 | 3496 ft | 152 kts | 7° |
| 2026-05-07 10:51 | 10.37790 | 122.82943 | 3487 ft | 152 kts | 8° |
| 2026-05-07 10:51 | 10.38845 | 122.82983 | 3493 ft | 152 kts | 7° |
| 2026-05-07 10:51 | 10.39899 | 122.83024 | 3491 ft | 152 kts | 7° |
| 2026-05-07 10:52 | 10.40955 | 122.83064 | 3494 ft | 152 kts | 7° |
| 2026-05-07 10:52 | 10.42013 | 122.83106 | 3497 ft | 152 kts | 7° |
| 2026-05-07 10:52 | 10.43072 | 122.83147 | 3495 ft | 152 kts | 7° |
| 2026-05-07 10:52 | 10.44131 | 122.83186 | 3493 ft | 152 kts | 8° |
| 2026-05-07 10:53 | 10.45189 | 122.83226 | 3497 ft | 152 kts | 8° |
| 2026-05-07 10:53 | 10.46250 | 122.83268 | 3495 ft | 153 kts | 8° |
| 2026-05-07 10:53 | 10.47320 | 122.83310 | 3491 ft | 154 kts | 8° |
| 2026-05-07 10:53 | 10.48382 | 122.83354 | 3492 ft | 155 kts | 9° |
| 2026-05-07 10:54 | 10.49456 | 122.83395 | 3491 ft | 155 kts | 6° |
| 2026-05-07 10:54 | 10.50528 | 122.83433 | 3499 ft | 153 kts | 6° |
| 2026-05-07 10:54 | 10.51601 | 122.83472 | 3483 ft | 155 kts | 6° |
| 2026-05-07 10:54 | 10.52668 | 122.83619 | 3465 ft | 154 kts | 19° |
| 2026-05-07 10:55 | 10.53699 | 122.83941 | 3409 ft | 155 kts | 21° |
| 2026-05-07 10:55 | 10.54717 | 122.84253 | 3454 ft | 151 kts | 22° |
| 2026-05-07 10:55 | 10.55671 | 122.84698 | 3372 ft | 152 kts | 33° |
| 2026-05-07 10:55 | 10.56505 | 122.85343 | 3351 ft | 150 kts | 47° |
| 2026-05-07 10:56 | 10.57221 | 122.86139 | 3233 ft | 156 kts | 49° |
| 2026-05-07 10:56 | 10.57977 | 122.86913 | 3117 ft | 152 kts | 46° |
| 2026-05-07 10:56 | 10.58780 | 122.87600 | 3024 ft | 149 kts | 42° |
| 2026-05-07 10:56 | 10.59582 | 122.88245 | 2903 ft | 145 kts | 41° |
| 2026-05-07 10:57 | 10.60373 | 122.88858 | 2735 ft | 142 kts | 39° |
| 2026-05-07 10:57 | 10.61191 | 122.89442 | 2589 ft | 144 kts | 37° |
| 2026-05-07 10:57 | 10.62006 | 122.90034 | 2452 ft | 143 kts | 38° |
| 2026-05-07 10:57 | 10.62802 | 122.90629 | 2371 ft | 141 kts | 38° |
| 2026-05-07 10:58 | 10.63325 | 122.91017 | 2296 ft | 140 kts | 38° |
| 2026-05-07 10:58 | 10.64374 | 122.91793 | 2172 ft | 137 kts | 35° |
| 2026-05-07 10:58 | 10.64889 | 122.92166 | 2113 ft | 138 kts | 34° |
| 2026-05-07 10:58 | 10.65687 | 122.92686 | 2067 ft | 134 kts | 32° |
| 2026-05-07 10:59 | 10.66488 | 122.93169 | 1972 ft | 134 kts | 30° |
| 2026-05-07 10:59 | 10.67291 | 122.93639 | 1837 ft | 134 kts | 28° |
| 2026-05-07 10:59 | 10.68052 | 122.94162 | 1777 ft | 131 kts | 37° |
| 2026-05-07 10:59 | 10.68885 | 122.95055 | 1673 ft | 132 kts | 47° |
| 2026-05-07 11:00 | 10.69287 | 122.95540 | 1633 ft | 133 kts | 47° |
| 2026-05-07 11:00 | 10.69874 | 122.96256 | 1568 ft | 131 kts | 48° |
| 2026-05-07 11:00 | 10.70435 | 122.96967 | 1499 ft | 128 kts | 47° |
| 2026-05-07 11:00 | 10.71006 | 122.97632 | 1362 ft | 124 kts | 41° |
| 2026-05-07 11:01 | 10.71593 | 122.98230 | 1264 ft | 115 kts | 41° |
| 2026-05-07 11:01 | 10.72219 | 122.98701 | 1105 ft | 107 kts | 31° |
| 2026-05-07 11:01 | 10.72847 | 122.99060 | 1018 ft | 101 kts | 29° |
| 2026-05-07 11:01 | 10.73463 | 122.99431 | 882 ft | 106 kts | 30° |
| 2026-05-07 11:02 | 10.74099 | 122.99804 | 784 ft | 104 kts | 31° |
| 2026-05-07 11:02 | 10.74738 | 123.00168 | 642 ft | 106 kts | 31° |
| 2026-05-07 11:02 | 10.75377 | 123.00560 | 455 ft | 108 kts | 32° |
| 2026-05-07 11:02 | 10.76012 | 123.00929 | 300 ft | 98 kts | 30° |
| 2026-05-07 11:03 | 10.76551 | 123.01252 | 181 ft | 80 kts | 32° |
| 2026-05-07 11:03 | 10.77005 | 123.01518 | 101 ft | 67 kts | 33° |
| 2026-05-07 11:03 | 10.77359 | 123.01729 | 88 ft | 47 kts | 31° |
| 2026-05-07 11:03 | 10.77562 | 123.01848 | 90 ft | 24 kts | 31° |
| 2026-05-07 11:04 | 10.77648 | 123.01887 | 89 ft | 6 kts | 352° |
| 2026-05-07 11:04 | 10.77686 | 123.01862 | 89 ft | 8 kts | 307° |
| 2026-05-07 11:04 | 10.77726 | 123.01794 | 88 ft | 14 kts | 300° |
| 2026-05-07 11:04 | 10.77741 | 123.01697 | 90 ft | 16 kts | 230° |
| 2026-05-07 11:05 | 10.77648 | 123.01639 | 88 ft | 16 kts | 210° |
| 2026-05-07 11:05 | 10.77551 | 123.01583 | 88 ft | 17 kts | 210° |
| 2026-05-07 11:05 | 10.77447 | 123.01523 | 88 ft | 17 kts | 208° |
| 2026-05-07 11:05 | 10.77344 | 123.01473 | 83 ft | 16 kts | 210° |
| 2026-05-07 11:06 | 10.77258 | 123.01423 | 81 ft | 8 kts | 219° |
| 2026-05-07 11:06 | 10.77271 | 123.01377 | 83 ft | 8 kts | 353° |
| 2026-05-07 11:06 | 10.77286 | 123.01381 | 80 ft | 0 kts | 32° |